Terminal Aerodrome Forecast
Issued by NWS

Home | Current Version | Previous Version | Text Only | Print | Product List | Glossary On
Versions: 1 2 3 4 5 6 7 8 9 10 11 12 13 14 15 16 17 18
000
FTUS44 KEWX 261120
TAFSSF
TAF
KSSF 261120Z 2612/2712 17011KT P6SM OVC009
     FM261500 17008KT P6SM OVC015
     FM261900 17014KT P6SM SCT025
     FM270500 15013KT P6SM OVC015
     FM271000 16012KT P6SM OVC007=

USA.gov is the U.S. government's official web portal to all federal, state and local government web resources and services.